Time;durP1;ratioP1;P1;durP2;ratioP2;P2;SDS_P1;SDS_P2;PMS_P1;PMS_P2;Temp;Humidity;BMP_temperature;BMP_pressure;BME280_temperature;BME280_humidity;BME280_pressure;Samples;Min_cycle;Max_cycle;Signal;HPM_P1;HPM_P2
2023/02/28 00:00:10;;;;;;;;;;;103.20;2227.20;;;;;;5074651;28;20494;-78
2023/02/28 00:02:40;;;;;;;20.23;12.43;;;103.20;2227.20;;;;;;5073066;28;20041;-77
2023/02/28 00:05:07;;;;;;;22.30;13.70;;;103.10;2227.20;;;;;;5073428;28;20476;-77
2023/02/28 00:07:34;;;;;;;22.98;13.07;;;103.30;2227.20;;;;;;5087523;28;20424;-78
2023/02/28 00:10:00;;;;;;;23.60;13.60;;;103.20;2227.20;;;;;;5074177;28;20024;-75
2023/02/28 00:12:25;;;;;;;;;;;103.30;2227.20;;;;;;5074644;28;20074;-77
2023/02/28 00:14:51;;;;;;;22.15;13.35;;;103.20;2227.20;;;;;;5072805;28;20490;-77
2023/02/28 00:17:20;;;;;;;;;;;103.30;2227.20;;;;;;5075238;28;20021;-78
2023/02/28 00:19:50;;;;;;;23.75;14.13;;;103.20;2227.20;;;;;;5073250;28;19936;-76
2023/02/28 00:22:18;;;;;;;26.08;15.05;;;103.30;2227.20;;;;;;5074364;28;20438;-77
2023/02/28 00:24:44;;;;;;;25.17;13.57;;;103.20;2227.20;;;;;;5072760;28;20025;-77
2023/02/28 00:27:10;;;;;;;;;;;103.10;2227.20;;;;;;5073268;28;20031;-77
2023/02/28 00:29:36;;;;;;;28.60;14.23;;;103.00;2227.20;;;;;;5072504;28;20003;-77
2023/02/28 00:32:03;;;;;;;26.83;15.27;;;102.80;2227.20;;;;;;5088729;28;20045;-77
2023/02/28 00:34:29;;;;;;;24.63;14.52;;;103.10;2227.20;;;;;;5074513;28;20488;-77
2023/02/28 00:36:55;;;;;;;;;;;103.10;2227.20;;;;;;5072917;28;20019;-77
2023/02/28 00:39:21;;;;;;;30.05;15.13;;;103.20;2227.20;;;;;;5072143;28;19912;-77
2023/02/28 00:41:46;;;;;;;;;;;103.20;2227.20;;;;;;5083219;28;20408;-77
2023/02/28 00:44:12;;;;;;;25.95;14.15;;;103.00;2227.20;;;;;;5071361;28;19904;-77
2023/02/28 00:46:37;;;;;;;;;;;103.00;2227.20;;;;;;5072773;28;20448;-77
2023/02/28 00:49:03;;;;;;;25.75;15.00;;;102.90;2227.20;;;;;;5071790;28;20397;-77
2023/02/28 00:51:29;;;;;;;;;;;103.00;2227.20;;;;;;5080913;28;20024;-78
2023/02/28 00:53:54;;;;;;;27.60;15.77;;;103.00;2227.20;;;;;;5088892;28;19919;-78
2023/02/28 00:56:20;;;;;;;;;;;103.00;2227.20;;;;;;5072274;28;20035;-77
2023/02/28 00:58:46;;;;;;;26.45;15.40;;;103.00;2227.20;;;;;;5072365;28;20395;-77
2023/02/28 01:01:11;;;;;;;;;;;103.00;2227.20;;;;;;5072550;28;20025;-78
2023/02/28 01:03:38;;;;;;;24.42;14.45;;;103.00;2227.20;;;;;;5073361;28;20056;-77
2023/02/28 01:06:04;;;;;;;26.45;15.63;;;102.90;2227.20;;;;;;5073288;28;20026;-77
2023/02/28 01:08:30;;;;;;;29.02;17.52;;;102.90;2227.20;;;;;;5081654;28;20029;-78
2023/02/28 01:10:55;;;;;;;;;;;102.90;2227.20;;;;;;5071863;28;20103;-77
2023/02/28 01:13:22;;;;;;;26.38;15.18;;;102.90;2227.20;;;;;;5071840;28;19990;-77
2023/02/28 01:15:54;;;;;;;27.85;15.88;;;102.90;2227.20;;;;;;5072195;28;20042;-78
2023/02/28 01:18:21;;;;;;;26.55;15.98;;;102.80;2227.20;;;;;;5073088;28;20016;-78
2023/02/28 01:20:47;;;;;;;28.20;15.80;;;102.80;2227.20;;;;;;5088566;28;20377;-78
2023/02/28 01:23:13;;;;;;;33.78;17.65;;;102.80;2227.20;;;;;;5073124;28;20535;-78
2023/02/28 01:25:39;;;;;;;30.20;17.40;;;102.80;2227.20;;;;;;5072971;28;20031;-77
2023/02/28 01:28:05;;;;;;;;;;;102.70;2227.20;;;;;;5072518;28;20036;-77
2023/02/28 01:30:31;;;;;;;32.08;18.13;;;102.60;2227.20;;;;;;5073478;28;19904;-78
2023/02/28 01:32:57;;;;;;;;;;;102.70;2227.20;;;;;;5088773;28;20548;-78
2023/02/28 01:35:23;;;;;;;31.48;17.88;;;102.70;2227.20;;;;;;5071930;28;20058;-77
2023/02/28 01:37:48;;;;;;;;;;;102.60;2227.20;;;;;;5072416;28;20024;-78
2023/02/28 01:40:14;;;;;;;33.92;19.27;;;102.70;2227.20;;;;;;5071340;28;19905;-78
2023/02/28 01:42:40;;;;;;;;;;;102.70;2227.20;;;;;;5079330;28;20476;-78
2023/02/28 01:45:28;;;;;;;34.72;20.00;;;102.70;2227.20;;;;;;5071701;28;19912;-77
2023/02/28 01:48:07;;;;;;;35.08;20.00;;;102.70;2227.20;;;;;;5086042;28;20476;-78
2023/02/28 01:50:38;;;;;;;35.72;21.13;;;102.70;2227.20;;;;;;5088447;28;20024;-77
2023/02/28 01:53:07;;;;;;;35.30;20.73;;;102.70;2227.20;;;;;;5069600;28;20020;-77
2023/02/28 01:55:33;;;;;;;33.28;19.27;;;102.70;2227.20;;;;;;5072773;28;20025;-77
2023/02/28 01:58:03;;;;;;;36.38;19.30;;;102.70;2227.20;;;;;;5070637;28;20130;-77
2023/02/28 02:00:30;;;;;;;32.85;18.75;;;102.60;2227.20;;;;;;5071671;28;20038;-77
2023/02/28 02:02:59;;;;;;;34.63;19.60;;;102.80;2227.20;;;;;;5071818;28;20033;-77
2023/02/28 02:05:30;;;;;;;32.28;19.85;;;102.60;2227.20;;;;;;5087969;28;20028;-77
2023/02/28 02:08:02;;;;;;;33.10;19.77;;;102.70;2227.20;;;;;;5072369;28;20027;-78
2023/02/28 02:10:49;;;;;;;32.22;18.33;;;102.70;2227.20;;;;;;5071419;28;20078;-77
2023/02/28 02:13:58;;;;;;;26.75;14.93;;;102.80;2227.20;;;;;;5087961;28;20108;-78
2023/02/28 02:16:42;;;;;;;33.15;19.42;;;102.80;2227.20;;;;;;4972770;28;20042;-78
2023/02/28 02:19:37;;;;;;;34.80;19.70;;;102.80;2227.20;;;;;;4973237;28;20098;-77
2023/02/28 02:22:02;;;;;;;27.20;17.45;;;102.80;2227.20;;;;;;4972168;28;20042;-77
2023/02/28 02:24:31;;;;;;;;;;;102.80;2227.20;;;;;;4977686;28;20035;-77
2023/02/28 02:27:17;;;;;;;32.17;17.88;;;102.80;2227.20;;;;;;4977508;28;19913;-77
2023/02/28 02:30:30;;;;;;;29.42;16.35;;;102.80;2227.20;;;;;;4976453;28;20042;-77
2023/02/28 02:33:18;;;;;;;37.45;20.02;;;102.70;2227.20;;;;;;4903957;29;20143;-77
2023/02/28 02:35:56;;;;;;;39.58;21.08;;;102.70;2227.20;;;;;;4924494;29;20479;-77
2023/02/28 02:38:44;;;;;;;35.67;20.77;;;102.70;2227.20;;;;;;4923124;29;20473;-77
2023/02/28 02:41:24;;;;;;;37.90;20.10;;;102.80;2227.20;;;;;;4922541;29;20055;-77
2023/02/28 02:44:24;;;;;;;38.58;21.08;;;102.70;2227.20;;;;;;4921572;29;20051;-77
2023/02/28 02:47:03;;;;;;;35.75;21.00;;;102.80;2227.20;;;;;;4881475;29;20044;-77
2023/02/28 02:49:31;;;;;;;40.42;20.30;;;102.80;2227.20;;;;;;4866794;29;20215;-78
2023/02/28 02:52:06;;;;;;;37.03;20.13;;;102.80;2227.20;;;;;;4903615;29;20122;-78
2023/02/28 02:54:37;;;;;;;39.47;20.88;;;102.80;2227.20;;;;;;4955030;28;20050;-77
2023/02/28 02:57:09;;;;;;;36.35;20.52;;;102.90;2227.20;;;;;;4958788;28;20066;-77
2023/02/28 02:59:38;;;;;;;35.38;18.70;;;102.80;2227.20;;;;;;4954338;28;20031;-77
2023/02/28 03:02:09;;;;;;;32.30;20.10;;;102.80;2227.20;;;;;;4956056;28;20490;-77
2023/02/28 03:04:46;;;;;;;35.58;20.08;;;102.80;2227.20;;;;;;4957366;28;20034;-78
2023/02/28 03:07:11;;;;;;;30.80;19.48;;;102.80;2227.20;;;;;;4957495;28;20074;-78
2023/02/28 03:09:37;;;;;;;;;;;102.90;2227.20;;;;;;4995757;28;20037;-78
2023/02/28 03:12:04;;;;;;;33.20;19.38;;;102.80;2227.20;;;;;;5013860;28;20028;-78
2023/02/28 03:14:43;;;;;;;37.72;19.15;;;102.90;2227.20;;;;;;4997961;28;20042;-78
2023/02/28 03:17:23;;;;;;;34.38;18.70;;;103.00;2227.20;;;;;;5013842;28;20034;-77
2023/02/28 03:20:24;;;;;;;34.88;20.25;;;102.90;2227.20;;;;;;5013794;28;20160;-78
2023/02/28 03:22:52;;;;;;;35.75;20.63;;;102.90;2227.20;;;;;;5016215;28;20044;-77
2023/02/28 03:25:52;;;;;;;33.00;19.13;;;103.00;2227.20;;;;;;5071799;28;20496;-76
2023/02/28 03:28:46;;;;;;;35.35;19.42;;;103.00;2227.20;;;;;;5090178;28;20028;-78
2023/02/28 03:31:14;;;;;;;34.45;20.60;;;103.00;2227.20;;;;;;5074609;28;20024;-76
2023/02/28 03:33:54;;;;;;;33.47;19.40;;;103.00;2227.20;;;;;;5090693;28;20036;-77
2023/02/28 03:36:29;;;;;;;33.35;19.55;;;102.80;2227.20;;;;;;5090782;28;20039;-78
2023/02/28 03:39:03;;;;;;;37.60;20.63;;;102.90;2227.20;;;;;;5091344;28;20047;-76
2023/02/28 03:41:36;;;;;;;36.17;19.88;;;102.90;2227.20;;;;;;5091540;28;20139;-77
2023/02/28 03:44:09;;;;;;;35.63;19.75;;;103.00;2227.20;;;;;;5073948;28;20028;-78
2023/02/28 03:46:42;;;;;;;37.03;20.38;;;103.00;2227.20;;;;;;5091164;28;20424;-78
2023/02/28 03:49:32;;;;;;;35.28;20.63;;;103.00;2227.20;;;;;;5074318;28;20013;-76
2023/02/28 03:52:02;;;;;;;38.90;20.73;;;103.00;2227.20;;;;;;5074389;28;20027;-78
2023/02/28 03:54:40;;;;;;;36.65;20.65;;;103.10;2227.20;;;;;;5074282;28;20036;-79
2023/02/28 03:57:26;;;;;;;39.67;19.73;;;103.10;2227.20;;;;;;5062503;28;20021;-77
2023/02/28 04:00:15;;;;;;;30.73;15.88;;;103.10;2227.20;;;;;;5075135;28;20024;-77
2023/02/28 04:02:41;;;;;;;38.47;20.35;;;103.10;2227.20;;;;;;5075137;28;20028;-77
2023/02/28 04:05:07;;;;;;;;;;;103.00;2227.20;;;;;;5075541;28;20035;-78
2023/02/28 04:07:33;;;;;;;34.45;19.75;;;103.00;2227.20;;;;;;5073854;28;19905;-76
2023/02/28 04:09:59;;;;;;;;;;;102.90;2227.20;;;;;;5074373;28;20016;-78
2023/02/28 04:12:25;;;;;;;29.95;18.75;;;103.00;2227.20;;;;;;5073705;28;20436;-77
2023/02/28 04:14:51;;;;;;;32.83;19.58;;;102.90;2227.20;;;;;;5067706;28;20124;-77
2023/02/28 04:17:16;;;;;;;;;;;102.90;2227.20;;;;;;5067283;28;20111;-77
2023/02/28 04:19:42;;;;;;;30.73;16.92;;;102.90;2227.20;;;;;;5073587;28;19905;-77
2023/02/28 04:22:09;;;;;;;;;;;102.90;2227.20;;;;;;5074118;28;20020;-77
2023/02/28 04:24:35;;;;;;;32.50;17.30;;;102.90;2227.20;;;;;;5074809;28;19929;-77
2023/02/28 04:27:01;;;;;;;30.20;16.90;;;102.90;2227.20;;;;;;5073559;28;20028;-77
2023/02/28 04:29:34;;;;;;;29.15;17.33;;;103.00;2227.20;;;;;;5074726;28;20028;-78
2023/02/28 04:32:01;;;;;;;29.42;17.65;;;102.90;2227.20;;;;;;5090028;28;20040;-77
2023/02/28 04:34:29;;;;;;;29.35;17.90;;;102.80;2227.20;;;;;;5073619;28;20162;-76
2023/02/28 04:36:55;;;;;;;36.00;18.75;;;102.80;2227.20;;;;;;5073194;28;20020;-77
2023/02/28 04:39:24;;;;;;;25.48;16.38;;;102.80;2227.20;;;;;;5073371;28;20095;-77
2023/02/28 04:41:50;;;;;;;28.20;15.52;;;102.90;2227.20;;;;;;5089841;28;20112;-78
2023/02/28 04:44:16;;;;;;;;;;;102.80;2227.20;;;;;;5075087;28;20476;-77
2023/02/28 04:46:43;;;;;;;25.95;14.13;;;102.90;2227.20;;;;;;5074519;28;19910;-76
2023/02/28 04:49:11;;;;;;;25.13;15.07;;;102.80;2227.20;;;;;;5089759;28;20090;-76
2023/02/28 04:51:37;;;;;;;27.35;16.35;;;102.80;2227.20;;;;;;5073322;28;20519;-77
2023/02/28 04:54:03;;;;;;;;;;;102.80;2227.20;;;;;;5090386;28;20039;-76
2023/02/28 04:56:28;;;;;;;28.15;15.40;;;102.70;2227.20;;;;;;5073108;28;20413;-77
2023/02/28 04:58:54;;;;;;;;;;;102.80;2227.20;;;;;;5074853;28;20071;-78
2023/02/28 05:01:29;;;;;;;28.15;13.73;;;102.70;2227.20;;;;;;5072916;28;20279;-77
2023/02/28 05:03:57;;;;;;;28.35;15.23;;;102.70;2227.20;;;;;;5073076;28;20029;-78
2023/02/28 05:06:26;;;;;;;24.50;14.88;;;102.80;2227.20;;;;;;5089454;28;20021;-78
2023/02/28 05:08:52;;;;;;;25.08;13.60;;;102.80;2227.20;;;;;;5074067;28;20039;-78
2023/02/28 05:11:17;;;;;;;;;;;102.80;2227.20;;;;;;5073519;28;20016;-78
2023/02/28 05:13:44;;;;;;;26.40;13.68;;;102.80;2227.20;;;;;;5072864;28;20240;-79
2023/02/28 05:16:10;;;;;;;26.15;14.90;;;102.80;2227.20;;;;;;5074274;28;20024;-76
2023/02/28 05:18:36;;;;;;;;;;;102.80;2227.20;;;;;;5073283;28;20032;-78
2023/02/28 05:21:04;;;;;;;24.33;14.20;;;102.50;2227.20;;;;;;5073892;28;19912;-77
2023/02/28 05:23:30;;;;;;;26.60;14.80;;;102.80;2227.20;;;;;;5073943;28;20040;-78
2023/02/28 05:25:56;;;;;;;;;;;102.70;2227.20;;;;;;5072248;28;20115;-78
2023/02/28 05:28:21;;;;;;;23.58;12.57;;;102.70;2227.20;;;;;;5069673;28;19904;-78
2023/02/28 05:30:47;;;;;;;;;;;102.80;2227.20;;;;;;5072236;28;20052;-78
2023/02/28 05:33:13;;;;;;;23.90;14.07;;;102.70;2227.20;;;;;;5072542;28;19924;-77
2023/02/28 05:35:41;;;;;;;29.02;14.98;;;102.80;2227.20;;;;;;5072458;28;20033;-77
2023/02/28 05:38:07;;;;;;;25.63;15.65;;;102.80;2227.20;;;;;;5062834;28;20021;-78
2023/02/28 05:40:33;;;;;;;34.58;18.10;;;102.80;2227.20;;;;;;5070330;28;20017;-78
2023/02/28 05:42:59;;;;;;;;;;;102.70;2227.20;;;;;;5089758;28;20033;-79
2023/02/28 05:45:24;;;;;;;30.67;16.00;;;102.80;2227.20;;;;;;5072288;28;20045;-77
2023/02/28 05:47:53;;;;;;;;;;;102.80;2227.20;;;;;;5073106;28;20039;-78
2023/02/28 05:50:19;;;;;;;35.55;16.95;;;102.70;2227.20;;;;;;5072334;28;19908;-77
2023/02/28 05:52:49;;;;;;;;;;;102.70;2227.20;;;;;;5081813;28;20090;-78
2023/02/28 05:55:14;;;;;;;25.33;15.55;;;102.90;2227.20;;;;;;5087718;28;20368;-78
2023/02/28 05:57:40;;;;;;;;;;;102.80;2227.20;;;;;;5080204;28;20031;-77
2023/02/28 06:00:06;;;;;;;26.08;14.93;;;102.90;2227.20;;;;;;5088370;28;20352;-78
2023/02/28 06:02:32;;;;;;;27.58;15.82;;;102.80;2227.20;;;;;;5064133;28;20025;-78
2023/02/28 06:04:57;;;;;;;;;;;102.80;2227.20;;;;;;5089228;28;20028;-78
2023/02/28 06:07:23;;;;;;;26.27;15.95;;;102.80;2227.20;;;;;;5080427;28;19930;-78
2023/02/28 06:09:49;;;;;;;;;;;102.80;2227.20;;;;;;5071997;28;20111;-77
2023/02/28 06:12:14;;;;;;;25.42;16.23;;;102.70;2227.20;;;;;;5072053;28;20356;-78
2023/02/28 06:14:40;;;;;;;;;;;102.80;2227.20;;;;;;5072735;28;20480;-78
2023/02/28 06:17:06;;;;;;;25.02;14.57;;;102.80;2227.20;;;;;;5072263;28;19958;-78
2023/02/28 06:19:32;;;;;;;;;;;102.80;2227.20;;;;;;5072709;28;20062;-78
2023/02/28 06:21:59;;;;;;;30.20;16.77;;;102.80;2227.20;;;;;;5080319;28;19911;-78
2023/02/28 06:24:27;;;;;;;33.55;18.00;;;102.80;2227.20;;;;;;5073219;28;20020;-78
2023/02/28 06:26:53;;;;;;;26.55;15.85;;;102.80;2227.20;;;;;;5072079;28;20024;-77
2023/02/28 06:29:19;;;;;;;;;;;102.80;2227.20;;;;;;5073471;28;20512;-77
2023/02/28 06:31:45;;;;;;;31.75;17.80;;;102.70;2227.20;;;;;;5071535;28;19923;-78
2023/02/28 06:34:12;;;;;;;34.17;20.63;;;102.70;2227.20;;;;;;5073047;28;20028;-77
2023/02/28 06:36:39;;;;;;;34.15;18.95;;;102.70;2227.20;;;;;;5071620;28;20054;-79
2023/02/28 06:39:05;;;;;;;36.58;20.38;;;102.70;2227.20;;;;;;5088015;28;20099;-77
2023/02/28 06:41:31;;;;;;;34.67;18.42;;;102.60;2227.20;;;;;;5072540;28;20031;-76
2023/02/28 06:43:57;;;;;;;;;;;102.70;2227.20;;;;;;5063296;28;20028;-77
2023/02/28 06:46:23;;;;;;;27.25;15.18;;;102.70;2227.20;;;;;;5057892;28;19957;-77
2023/02/28 06:48:48;;;;;;;;;;;102.60;2227.20;;;;;;5065730;28;20483;-77
2023/02/28 06:51:18;;;;;;;33.80;18.83;;;102.70;2227.20;;;;;;5068927;28;20013;-76
2023/02/28 06:53:44;;;;;;;34.60;20.15;;;102.70;2227.20;;;;;;5071889;28;20480;-77
2023/02/28 06:56:10;;;;;;;;;;;102.70;2227.20;;;;;;5071569;28;20069;-77
2023/02/28 06:58:37;;;;;;;37.00;20.25;;;102.70;2227.20;;;;;;5071741;28;19912;-77
2023/02/28 07:01:03;;;;;;;33.28;19.02;;;102.60;2227.20;;;;;;5072433;28;20442;-78
2023/02/28 07:03:29;;;;;;;26.75;15.45;;;102.70;2227.20;;;;;;5071845;28;20060;-77
2023/02/28 07:05:56;;;;;;;;;;;102.70;2227.20;;;;;;5073071;28;20052;-79
2023/02/28 07:08:23;;;;;;;23.02;13.27;;;102.60;2227.20;;;;;;5071850;28;20363;-78
2023/02/28 07:10:53;;;;;;;25.38;13.90;;;102.50;2227.20;;;;;;5074765;28;20104;-77
2023/02/28 07:13:18;;;;;;;26.17;15.50;;;102.60;2227.20;;;;;;5075523;28;20017;-79
2023/02/28 07:15:44;;;;;;;;;;;102.70;2227.20;;;;;;5072912;28;20502;-80
2023/02/28 07:18:10;;;;;;;26.83;16.13;;;102.60;2227.20;;;;;;5075319;28;19905;-81
2023/02/28 07:20:35;;;;;;;;;;;102.60;2227.20;;;;;;5065247;28;20032;-79
2023/02/28 07:23:01;;;;;;;29.50;16.65;;;102.70;2227.20;;;;;;5074953;28;20321;-79
2023/02/28 07:25:27;;;;;;;;;;;102.70;2227.20;;;;;;5086249;28;20480;-76
2023/02/28 07:27:54;;;;;;;22.77;12.70;;;102.60;2227.20;;;;;;5075346;28;19904;-79
2023/02/28 07:30:20;;;;;;;23.98;14.05;;;102.60;2227.20;;;;;;5075336;28;20112;-80
2023/02/28 07:32:45;;;;;;;;;;;102.60;2227.20;;;;;;5074773;28;20079;-79
2023/02/28 07:35:12;;;;;;;29.90;15.13;;;102.80;2227.20;;;;;;5074432;28;19916;-80
2023/02/28 07:37:37;;;;;;;;;;;102.80;2227.20;;;;;;5091687;28;20077;-83
2023/02/28 07:40:08;;;;;;;26.67;13.85;;;102.90;2227.20;;;;;;5073913;28;19950;-79
2023/02/28 07:42:35;;;;;;;26.25;16.10;;;102.80;2227.20;;;;;;5075203;28;20032;-78
2023/02/28 07:45:01;;;;;;;27.73;15.25;;;102.90;2227.20;;;;;;5083599;28;20529;-79
2023/02/28 07:47:29;;;;;;;28.92;17.10;;;102.70;2227.20;;;;;;5074486;28;21506;-85
2023/02/28 07:49:54;;;;;;;30.92;15.85;;;102.90;2227.20;;;;;;5079656;28;20086;-77
2023/02/28 07:52:20;;;;;;;;;;;103.00;2227.20;;;;;;5080440;28;20040;-83
2023/02/28 07:54:45;;;;;;;34.45;18.85;;;103.00;2227.20;;;;;;5072173;28;19935;-78
2023/02/28 07:57:11;;;;;;;;;;;103.00;2227.20;;;;;;5071349;28;20046;-79
2023/02/28 07:59:37;;;;;;;70.32;31.98;;;103.00;2227.20;;;;;;5074685;28;19957;-84
2023/02/28 08:02:02;;;;;;;;;;;103.00;2227.20;;;;;;5074164;28;20029;-79
2023/02/28 08:04:31;;;;;;;28.02;17.00;;;103.10;2227.20;;;;;;5073837;28;19943;-82
2023/02/28 08:06:56;;;;;;;27.83;17.05;;;103.00;2227.20;;;;;;5073746;28;20440;-87
2023/02/28 08:09:22;;;;;;;;;;;103.00;2227.20;;;;;;5074297;28;20021;-81
2023/02/28 08:11:48;;;;;;;32.20;18.05;;;103.20;2227.20;;;;;;5074682;28;19904;-83
2023/02/28 08:14:13;;;;;;;;;;;103.10;2227.20;;;;;;5062234;28;20033;-84
2023/02/28 08:16:39;;;;;;;26.15;16.35;;;103.20;2227.20;;;;;;5084615;28;19908;-80
2023/02/28 08:19:05;;;;;;;;;;;103.10;2227.20;;;;;;5073952;28;20111;-83
2023/02/28 08:21:30;;;;;;;31.63;16.55;;;103.20;2227.20;;;;;;5073193;28;19911;-80
2023/02/28 08:23:56;;;;;;;;;;;103.20;2227.20;;;;;;5073870;28;20056;-81
2023/02/28 08:26:22;;;;;;;31.50;16.83;;;103.20;2227.20;;;;;;5073800;28;19943;-81
2023/02/28 08:28:48;;;;;;;26.48;16.30;;;103.30;2227.20;;;;;;5073228;28;20284;-85
2023/02/28 08:31:15;;;;;;;;;;;103.30;2227.20;;;;;;5080866;28;20081;-80
2023/02/28 08:33:42;;;;;;;26.35;13.18;;;103.30;2227.20;;;;;;5073417;28;19913;-79
2023/02/28 08:36:08;;;;;;;29.00;16.85;;;103.30;2227.20;;;;;;5073236;28;20120;-78
2023/02/28 08:38:35;;;;;;;36.38;18.58;;;103.30;2227.20;;;;;;5073271;28;20020;-79
2023/02/28 08:41:06;;;;;;;34.75;19.45;;;103.20;2227.20;;;;;;5090025;28;20384;-78
2023/02/28 08:43:33;;;;;;;31.80;18.40;;;103.30;2227.20;;;;;;5071746;28;20020;-80
2023/02/28 08:45:59;;;;;;;32.70;18.48;;;128.00;2252.80;;;;;;5086835;28;20427;-83
2023/02/28 08:48:25;;;;;;;;;;;128.00;2252.80;;;;;;5073369;28;20040;-83
2023/02/28 08:51:08;;;;;;;28.45;17.50;;;103.30;2227.20;;;;;;5073260;28;19932;-78
2023/02/28 08:53:39;;;;;;;29.50;17.40;;;103.30;2227.20;;;;;;5069130;28;20135;-77
2023/02/28 08:56:10;;;;;;;27.05;17.17;;;103.30;2227.20;;;;;;5072438;28;20062;-78
2023/02/28 08:58:36;;;;;;;31.25;16.80;;;103.30;2227.20;;;;;;5085462;28;20031;-78
2023/02/28 09:01:15;;;;;;;27.38;16.88;;;128.00;2252.80;;;;;;5073237;28;20021;-79
2023/02/28 09:03:41;;;;;;;35.63;18.95;;;128.10;2252.80;;;;;;5071999;28;20036;-77
2023/02/28 09:06:09;;;;;;;29.50;17.15;;;128.20;2252.80;;;;;;5073386;28;20052;-78
2023/02/28 09:08:35;;;;;;;29.02;17.10;;;128.10;2252.80;;;;;;5073258;28;20126;-79
2023/02/28 09:11:01;;;;;;;;;;;128.10;2252.80;;;;;;5072463;28;20025;-79
2023/02/28 09:13:27;;;;;;;18.87;12.07;;;128.10;2252.80;;;;;;5073069;28;19908;-80
2023/02/28 09:15:53;;;;;;;27.20;15.80;;;128.10;2252.80;;;;;;5073624;28;20289;-79
2023/02/28 09:18:19;;;;;;;;;;;128.00;2252.80;;;;;;5070086;28;20039;-82
2023/02/28 09:20:45;;;;;;;30.42;18.33;;;128.10;2252.80;;;;;;5083442;28;19905;-82
2023/02/28 09:23:11;;;;;;;;;;;128.20;2252.80;;;;;;5070487;28;20376;-80
2023/02/28 09:25:37;;;;;;;27.52;15.40;;;128.10;2252.80;;;;;;5072772;28;19912;-80
2023/02/28 09:28:03;;;;;;;36.38;19.33;;;128.20;2252.80;;;;;;5067760;28;20025;-79
2023/02/28 09:30:30;;;;;;;;;;;128.20;2252.80;;;;;;5072734;28;20085;-76
2023/02/28 09:32:55;;;;;;;24.27;14.00;;;128.30;2252.80;;;;;;5072102;28;19917;-84
2023/02/28 09:35:22;;;;;;;;;;;128.30;2252.80;;;;;;5080521;28;20098;-85
2023/02/28 09:37:49;;;;;;;26.65;15.35;;;128.30;2252.80;;;;;;5073618;28;19904;-85
2023/02/28 09:40:17;;;;;;;29.48;16.48;;;128.40;2252.80;;;;;;5089488;28;20476;-84
2023/02/28 09:42:46;;;;;;;29.98;16.20;;;128.30;2252.80;;;;;;5072905;28;20086;-84
2023/02/28 09:45:37;;;;;;;29.73;16.70;;;128.40;2252.80;;;;;;5089211;28;20037;-85
2023/02/28 09:48:21;;;;;;;28.50;16.08;;;128.30;2252.80;;;;;;5072483;28;20024;-84
2023/02/28 09:50:51;;;;;;;32.03;16.92;;;128.40;2252.80;;;;;;5088971;28;20017;-84
2023/02/28 09:53:27;;;;;;;30.27;16.98;;;128.40;2252.80;;;;;;5073732;28;20108;-84
2023/02/28 09:55:58;;;;;;;34.53;19.05;;;128.50;2252.80;;;;;;5071965;28;20040;-80
2023/02/28 09:58:28;;;;;;;35.25;19.85;;;128.50;2252.80;;;;;;5087654;28;20021;-77
2023/02/28 10:01:10;;;;;;;35.72;18.83;;;128.70;2252.80;;;;;;5075802;28;20029;-78
2023/02/28 10:03:42;;;;;;;31.73;17.67;;;128.70;2252.80;;;;;;5070690;28;20028;-78
2023/02/28 10:06:13;;;;;;;29.33;16.85;;;128.70;2252.80;;;;;;5080411;28;20021;-76
2023/02/28 10:08:59;;;;;;;32.25;17.45;;;128.70;2252.80;;;;;;5072645;28;20492;-75
2023/02/28 10:11:26;;;;;;;30.85;16.88;;;128.80;2252.80;;;;;;5031143;28;20048;-75
2023/02/28 10:13:55;;;;;;;30.98;17.08;;;128.90;2252.80;;;;;;5031454;28;20060;-76
2023/02/28 10:16:24;;;;;;;27.48;15.93;;;128.90;2252.80;;;;;;5030653;28;20405;-75
2023/02/28 10:19:01;;;;;;;29.50;16.73;;;128.80;2252.80;;;;;;5017653;28;20551;-75
2023/02/28 10:21:33;;;;;;;27.90;17.25;;;128.80;2252.80;;;;;;5009720;28;20044;-76
2023/02/28 10:24:16;;;;;;;27.45;17.42;;;128.90;2252.80;;;;;;5031751;28;20034;-75
2023/02/28 10:26:45;;;;;;;28.67;16.20;;;128.90;2252.80;;;;;;5031864;28;20033;-75
2023/02/28 10:29:11;;;;;;;32.85;18.02;;;153.60;2252.80;;;;;;5029961;28;20034;-75
2023/02/28 10:31:37;;;;;;;;;;;128.90;2252.80;;;;;;5015101;28;20056;-75
2023/02/28 10:34:05;;;;;;;33.22;16.73;;;128.90;2252.80;;;;;;5014388;28;19917;-75
2023/02/28 10:36:32;;;;;;;32.72;19.00;;;128.90;2252.80;;;;;;5032047;28;20045;-75
2023/02/28 10:38:59;;;;;;;41.58;22.73;;;128.90;2252.80;;;;;;5012069;28;20029;-75
2023/02/28 10:41:36;;;;;;;26.73;16.58;;;153.60;2252.80;;;;;;5012966;28;20034;-75
2023/02/28 10:44:20;;;;;;;27.92;13.52;;;153.60;2252.80;;;;;;5016460;28;20061;-75
2023/02/28 10:46:46;;;;;;;31.42;17.58;;;153.60;2252.80;;;;;;5019475;28;20667;-76
2023/02/28 10:49:14;;;;;;;;;;;153.60;2252.80;;;;;;5080645;28;20099;-75
2023/02/28 10:51:41;;;;;;;35.58;19.25;;;153.70;2252.80;;;;;;5075175;28;20364;-75
2023/02/28 10:54:37;;;;;;;32.63;16.20;;;153.60;2252.80;;;;;;5091174;28;20020;-75
2023/02/28 10:57:17;;;;;;;31.45;16.13;;;153.60;2252.80;;;;;;5086992;28;20032;-75
2023/02/28 10:59:44;;;;;;;27.77;14.95;;;153.70;2252.80;;;;;;5087120;28;20032;-76
2023/02/28 11:02:42;;;;;;;28.90;15.25;;;153.60;2252.80;;;;;;5074587;28;20058;-76
2023/02/28 11:05:30;;;;;;;26.88;14.15;;;153.70;2252.80;;;;;;4982273;28;20070;-75
2023/02/28 11:08:15;;;;;;;26.88;14.63;;;153.80;2252.80;;;;;;4979476;28;20034;-76
2023/02/28 11:10:47;;;;;;;23.63;13.93;;;153.80;2252.80;;;;;;4983117;28;20609;-76
2023/02/28 11:13:19;;;;;;;26.60;14.73;;;153.90;2252.80;;;;;;4965275;28;20117;-75
2023/02/28 11:15:55;;;;;;;28.20;17.67;;;153.90;2252.80;;;;;;4977361;28;20506;-77
2023/02/28 11:18:30;;;;;;;30.52;16.88;;;153.90;2252.80;;;;;;4974269;28;20443;-77
2023/02/28 11:20:58;;;;;;;28.02;16.38;;;153.90;2252.80;;;;;;4975671;28;20070;-77
2023/02/28 11:23:27;;;;;;;30.83;16.08;;;154.00;2252.80;;;;;;4974783;28;20116;-77
2023/02/28 11:25:56;;;;;;;28.65;15.68;;;153.80;2252.80;;;;;;4962905;28;20070;-76
2023/02/28 11:28:28;;;;;;;28.77;17.02;;;153.90;2252.80;;;;;;4959447;28;20052;-78
2023/02/28 11:31:14;;;;;;;30.63;17.10;;;154.00;2252.80;;;;;;4960817;28;20069;-77
2023/02/28 11:33:45;;;;;;;29.92;17.10;;;154.00;2252.80;;;;;;4951544;28;20050;-77
2023/02/28 11:36:16;;;;;;;40.92;22.23;;;154.00;2252.80;;;;;;4975778;28;20055;-76
2023/02/28 11:38:42;;;;;;;45.15;25.02;;;154.00;2252.80;;;;;;4974822;28;20031;-76
2023/02/28 11:41:23;;;;;;;;;;;153.90;2252.80;;;;;;4996149;28;20094;-76
2023/02/28 11:44:01;;;;;;;87.03;48.95;;;154.00;2252.80;;;;;;5088102;28;19904;-77
2023/02/28 11:46:33;;;;;;;75.90;41.28;;;154.10;2252.80;;;;;;5073973;28;20027;-77
2023/02/28 11:49:35;;;;;;;121.82;59.42;;;154.10;2252.80;;;;;;5074995;28;20468;-78
2023/02/28 11:52:38;;;;;;;40.88;22.63;;;154.10;2252.80;;;;;;4957701;28;20030;-77
2023/02/28 11:55:32;;;;;;;29.08;16.38;;;154.20;2252.80;;;;;;4953266;28;20039;-77
2023/02/28 11:58:27;;;;;;;28.35;15.90;;;154.20;2252.80;;;;;;4957687;28;20059;-76
2023/02/28 12:01:16;;;;;;;30.45;17.83;;;154.10;2252.80;;;;;;4957555;28;20033;-76
2023/02/28 12:03:59;;;;;;;43.83;26.05;;;154.10;2252.80;;;;;;4900428;29;20257;-76
2023/02/28 12:06:50;;;;;;;34.42;19.95;;;154.10;2252.80;;;;;;4900284;29;20047;-76
2023/02/28 12:09:51;;;;;;;32.22;15.63;;;154.10;2252.80;;;;;;4915824;29;20040;-76
2023/02/28 12:12:26;;;;;;;27.98;17.05;;;154.10;2252.80;;;;;;4893936;29;20029;-76
2023/02/28 12:15:20;;;;;;;26.55;15.50;;;154.20;2252.80;;;;;;4893844;29;20045;-76
2023/02/28 12:17:55;;;;;;;29.38;14.98;;;154.00;2252.80;;;;;;4878443;29;20089;-76
2023/02/28 12:20:45;;;;;;;30.10;16.08;;;154.00;2252.80;;;;;;4878844;29;20029;-76
2023/02/28 12:23:44;;;;;;;32.33;15.50;;;154.00;2252.80;;;;;;4878683;29;20033;-76
2023/02/28 12:26:15;;;;;;;35.65;20.30;;;154.00;2252.80;;;;;;4878185;29;20418;-76
2023/02/28 12:29:01;;;;;;;34.83;18.48;;;154.20;2252.80;;;;;;4913699;29;20083;-76
2023/02/28 12:31:31;;;;;;;33.22;16.50;;;154.00;2252.80;;;;;;4934393;29;20158;-76
2023/02/28 12:34:02;;;;;;;28.90;16.65;;;153.90;2252.80;;;;;;4934484;29;20040;-76
2023/02/28 12:36:29;;;;;;;32.45;16.17;;;153.90;2252.80;;;;;;4934125;29;20040;-76